sensor_id;sensor_type;location;lat;lon;timestamp;temperature;humidity
33645;DHT22;19986;48.190;16.366;2022-07-03T00:02:18;22.80;97.60
33645;DHT22;19986;48.190;16.366;2022-07-03T00:04:44;22.70;97.80
33645;DHT22;19986;48.190;16.366;2022-07-03T00:07:09;22.70;98.00
33645;DHT22;19986;48.190;16.366;2022-07-03T00:09:35;22.60;98.20
33645;DHT22;19986;48.190;16.366;2022-07-03T00:12:01;22.60;98.50
33645;DHT22;19986;48.190;16.366;2022-07-03T00:14:27;22.50;98.60
33645;DHT22;19986;48.190;16.366;2022-07-03T00:16:53;22.50;98.90
33645;DHT22;19986;48.190;16.366;2022-07-03T00:19:19;22.40;99.20
33645;DHT22;19986;48.190;16.366;2022-07-03T00:21:52;22.40;99.40
33645;DHT22;19986;48.190;16.366;2022-07-03T00:24:31;22.30;99.70
33645;DHT22;19986;48.190;16.366;2022-07-03T00:26:58;22.20;99.90
33645;DHT22;19986;48.190;16.366;2022-07-03T00:29:29;22.20;99.90
33645;DHT22;19986;48.190;16.366;2022-07-03T00:31:58;22.20;99.90
33645;DHT22;19986;48.190;16.366;2022-07-03T00:34:25;22.20;99.90
33645;DHT22;19986;48.190;16.366;2022-07-03T00:36:52;22.20;99.90
33645;DHT22;19986;48.190;16.366;2022-07-03T00:39:18;22.20;99.90
33645;DHT22;19986;48.190;16.366;2022-07-03T00:41:45;22.20;99.90
33645;DHT22;19986;48.190;16.366;2022-07-03T00:44:17;22.10;99.90
33645;DHT22;19986;48.190;16.366;2022-07-03T00:46:47;22.10;99.90
33645;DHT22;19986;48.190;16.366;2022-07-03T00:49:18;22.10;99.90
33645;DHT22;19986;48.190;16.366;2022-07-03T00:51:51;22.00;99.90
33645;DHT22;19986;48.190;16.366;2022-07-03T00:54:21;22.00;99.90
33645;DHT22;19986;48.190;16.366;2022-07-03T00:56:51;22.00;99.90
33645;DHT22;19986;48.190;16.366;2022-07-03T00:59:18;22.00;99.90
33645;DHT22;19986;48.190;16.366;2022-07-03T01:01:45;21.90;99.90
33645;DHT22;19986;48.190;16.366;2022-07-03T01:10:04;21.80;99.90
33645;DHT22;19986;48.190;16.366;2022-07-03T01:15:49;21.70;99.90
33645;DHT22;19986;48.190;16.366;2022-07-03T01:18:08;21.70;99.90
33645;DHT22;19986;48.190;16.366;2022-07-03T01:20:41;21.70;99.90
33645;DHT22;19986;48.190;16.366;2022-07-03T01:23:20;21.70;99.90
33645;DHT22;19986;48.190;16.366;2022-07-03T01:25:51;21.70;99.90
33645;DHT22;19986;48.190;16.366;2022-07-03T01:28:21;21.70;99.90
33645;DHT22;19986;48.190;16.366;2022-07-03T01:30:51;21.70;99.90
33645;DHT22;19986;48.190;16.366;2022-07-03T01:33:19;21.80;99.90
33645;DHT22;19986;48.190;16.366;2022-07-03T01:36:05;21.80;99.90
33645;DHT22;19986;48.190;16.366;2022-07-03T01:38:37;21.70;99.90
33645;DHT22;19986;48.190;16.366;2022-07-03T01:41:10;21.70;99.90
33645;DHT22;19986;48.190;16.366;2022-07-03T01:43:48;21.70;99.90
33645;DHT22;19986;48.190;16.366;2022-07-03T01:46:35;21.70;99.90
33645;DHT22;19986;48.190;16.366;2022-07-03T01:49:03;21.70;99.90
33645;DHT22;19986;48.190;16.366;2022-07-03T01:51:34;21.70;99.90
33645;DHT22;19986;48.190;16.366;2022-07-03T01:54:02;21.70;99.90
33645;DHT22;19986;48.190;16.366;2022-07-03T01:56:32;21.70;99.90
33645;DHT22;19986;48.190;16.366;2022-07-03T01:58:59;21.70;99.90
33645;DHT22;19986;48.190;16.366;2022-07-03T02:01:51;21.70;99.90
33645;DHT22;19986;48.190;16.366;2022-07-03T02:04:27;21.70;99.90
33645;DHT22;19986;48.190;16.366;2022-07-03T02:10:04;21.70;99.90
33645;DHT22;19986;48.190;16.366;2022-07-03T02:12:52;21.70;99.90
33645;DHT22;19986;48.190;16.366;2022-07-03T02:15:31;21.70;99.90
33645;DHT22;19986;48.190;16.366;2022-07-03T02:17:59;21.70;99.90
33645;DHT22;19986;48.190;16.366;2022-07-03T02:20:27;21.70;99.90
33645;DHT22;19986;48.190;16.366;2022-07-03T02:22:59;21.60;99.90
33645;DHT22;19986;48.190;16.366;2022-07-03T02:25:26;21.60;99.90
33645;DHT22;19986;48.190;16.366;2022-07-03T02:28:04;21.50;99.90
33645;DHT22;19986;48.190;16.366;2022-07-03T02:30:35;21.50;99.90
33645;DHT22;19986;48.190;16.366;2022-07-03T02:33:11;21.50;99.90
33645;DHT22;19986;48.190;16.366;2022-07-03T02:35:38;21.50;99.90
33645;DHT22;19986;48.190;16.366;2022-07-03T02:41:15;21.50;99.90
33645;DHT22;19986;48.190;16.366;2022-07-03T02:44:01;21.50;99.90
33645;DHT22;19986;48.190;16.366;2022-07-03T02:54:52;21.40;99.90
33645;DHT22;19986;48.190;16.366;2022-07-03T02:57:19;21.40;99.90
33645;DHT22;19986;48.190;16.366;2022-07-03T02:59:56;21.40;99.90
33645;DHT22;19986;48.190;16.366;2022-07-03T03:05:01;21.40;99.90
33645;DHT22;19986;48.190;16.366;2022-07-03T03:07:45;21.40;99.90
33645;DHT22;19986;48.190;16.366;2022-07-03T03:10:19;21.30;99.90
33645;DHT22;19986;48.190;16.366;2022-07-03T03:12:47;21.30;99.90
33645;DHT22;19986;48.190;16.366;2022-07-03T03:15:17;21.30;99.90
33645;DHT22;19986;48.190;16.366;2022-07-03T03:17:51;21.30;99.90
33645;DHT22;19986;48.190;16.366;2022-07-03T03:20:23;21.30;99.90
33645;DHT22;19986;48.190;16.366;2022-07-03T03:23:06;21.40;99.90
33645;DHT22;19986;48.190;16.366;2022-07-03T03:25:33;21.40;99.90
33645;DHT22;19986;48.190;16.366;2022-07-03T03:27:59;21.50;99.90
33645;DHT22;19986;48.190;16.366;2022-07-03T03:30:25;21.40;99.90
33645;DHT22;19986;48.190;16.366;2022-07-03T03:32:51;21.30;99.90
33645;DHT22;19986;48.190;16.366;2022-07-03T03:35:17;21.40;99.90
33645;DHT22;19986;48.190;16.366;2022-07-03T03:37:45;21.40;99.90
33645;DHT22;19986;48.190;16.366;2022-07-03T03:40:11;21.40;99.90
33645;DHT22;19986;48.190;16.366;2022-07-03T03:42:37;21.40;99.90
33645;DHT22;19986;48.190;16.366;2022-07-03T03:45:04;21.40;99.90
33645;DHT22;19986;48.190;16.366;2022-07-03T03:47:30;21.30;99.90
33645;DHT22;19986;48.190;16.366;2022-07-03T03:49:56;21.30;99.90
33645;DHT22;19986;48.190;16.366;2022-07-03T03:52:22;21.30;99.90
33645;DHT22;19986;48.190;16.366;2022-07-03T03:54:48;21.30;99.90
33645;DHT22;19986;48.190;16.366;2022-07-03T03:57:22;21.30;99.90
33645;DHT22;19986;48.190;16.366;2022-07-03T03:59:48;21.40;99.90
33645;DHT22;19986;48.190;16.366;2022-07-03T04:02:14;21.50;99.90
33645;DHT22;19986;48.190;16.366;2022-07-03T04:04:40;21.50;99.90
33645;DHT22;19986;48.190;16.366;2022-07-03T04:07:07;21.40;99.90
33645;DHT22;19986;48.190;16.366;2022-07-03T04:09:34;21.40;99.90
33645;DHT22;19986;48.190;16.366;2022-07-03T04:12:00;21.50;99.90
33645;DHT22;19986;48.190;16.366;2022-07-03T04:14:26;21.50;99.90
33645;DHT22;19986;48.190;16.366;2022-07-03T04:16:52;21.50;99.90
33645;DHT22;19986;48.190;16.366;2022-07-03T04:19:18;21.50;99.90
33645;DHT22;19986;48.190;16.366;2022-07-03T04:21:44;21.60;99.90
33645;DHT22;19986;48.190;16.366;2022-07-03T04:24:09;21.60;99.90
33645;DHT22;19986;48.190;16.366;2022-07-03T04:26:35;21.60;99.90
33645;DHT22;19986;48.190;16.366;2022-07-03T04:29:01;21.60;99.90
33645;DHT22;19986;48.190;16.366;2022-07-03T04:31:27;21.60;99.90
33645;DHT22;19986;48.190;16.366;2022-07-03T04:33:53;21.60;99.90
33645;DHT22;19986;48.190;16.366;2022-07-03T04:36:19;21.70;99.90
33645;DHT22;19986;48.190;16.366;2022-07-03T04:38:45;21.70;99.90
33645;DHT22;19986;48.190;16.366;2022-07-03T04:41:11;21.80;99.90
33645;DHT22;19986;48.190;16.366;2022-07-03T04:43:37;21.90;99.90
33645;DHT22;19986;48.190;16.366;2022-07-03T04:46:04;22.00;99.90
33645;DHT22;19986;48.190;16.366;2022-07-03T04:48:30;22.10;99.90
33645;DHT22;19986;48.190;16.366;2022-07-03T04:50:57;22.20;99.90
33645;DHT22;19986;48.190;16.366;2022-07-03T04:53:23;22.30;99.90
33645;DHT22;19986;48.190;16.366;2022-07-03T04:55:49;22.50;99.90
33645;DHT22;19986;48.190;16.366;2022-07-03T04:58:16;23.20;99.90
33645;DHT22;19986;48.190;16.366;2022-07-03T05:00:43;25.10;99.90
33645;DHT22;19986;48.190;16.366;2022-07-03T05:03:09;27.00;99.90
33645;DHT22;19986;48.190;16.366;2022-07-03T05:05:35;29.30;98.60
33645;DHT22;19986;48.190;16.366;2022-07-03T05:08:01;31.40;94.30
33645;DHT22;19986;48.190;16.366;2022-07-03T05:10:27;32.60;90.70
33645;DHT22;19986;48.190;16.366;2022-07-03T05:12:53;33.30;87.70
33645;DHT22;19986;48.190;16.366;2022-07-03T05:15:19;33.70;84.90
33645;DHT22;19986;48.190;16.366;2022-07-03T05:17:46;33.70;82.60
33645;DHT22;19986;48.190;16.366;2022-07-03T05:20:12;33.30;81.90
33645;DHT22;19986;48.190;16.366;2022-07-03T05:22:58;33.90;81.90
33645;DHT22;19986;48.190;16.366;2022-07-03T05:25:24;34.30;79.30
33645;DHT22;19986;48.190;16.366;2022-07-03T05:27:52;34.70;77.30
33645;DHT22;19986;48.190;16.366;2022-07-03T05:30:22;34.40;76.80
33645;DHT22;19986;48.190;16.366;2022-07-03T05:32:49;32.70;78.10
33645;DHT22;19986;48.190;16.366;2022-07-03T05:35:15;30.70;81.70
33645;DHT22;19986;48.190;16.366;2022-07-03T05:37:41;29.00;85.60
33645;DHT22;19986;48.190;16.366;2022-07-03T05:40:07;27.90;88.90
33645;DHT22;19986;48.190;16.366;2022-07-03T05:42:33;26.90;90.70
33645;DHT22;19986;48.190;16.366;2022-07-03T05:45:00;26.10;91.70
33645;DHT22;19986;48.190;16.366;2022-07-03T05:47:26;25.60;92.90
33645;DHT22;19986;48.190;16.366;2022-07-03T05:49:53;25.40;93.60
33645;DHT22;19986;48.190;16.366;2022-07-03T05:52:19;25.30;93.70
33645;DHT22;19986;48.190;16.366;2022-07-03T05:54:45;25.00;94.10
33645;DHT22;19986;48.190;16.366;2022-07-03T05:57:11;24.70;94.60
33645;DHT22;19986;48.190;16.366;2022-07-03T05:59:37;24.40;95.40
33645;DHT22;19986;48.190;16.366;2022-07-03T06:02:03;24.20;95.90
33645;DHT22;19986;48.190;16.366;2022-07-03T06:04:29;23.80;96.80
33645;DHT22;19986;48.190;16.366;2022-07-03T06:06:55;23.60;97.50
33645;DHT22;19986;48.190;16.366;2022-07-03T06:09:22;23.60;97.60
33645;DHT22;19986;48.190;16.366;2022-07-03T06:11:48;23.70;98.10
33645;DHT22;19986;48.190;16.366;2022-07-03T06:14:14;23.70;98.10
33645;DHT22;19986;48.190;16.366;2022-07-03T06:16:40;23.60;98.20
33645;DHT22;19986;48.190;16.366;2022-07-03T06:19:06;23.70;98.50
33645;DHT22;19986;48.190;16.366;2022-07-03T06:21:33;23.60;98.70
33645;DHT22;19986;48.190;16.366;2022-07-03T06:23:59;23.60;99.10
33645;DHT22;19986;48.190;16.366;2022-07-03T06:26:26;23.50;99.30
33645;DHT22;19986;48.190;16.366;2022-07-03T06:28:52;23.50;99.70
33645;DHT22;19986;48.190;16.366;2022-07-03T06:31:18;23.50;99.70
33645;DHT22;19986;48.190;16.366;2022-07-03T06:33:44;23.70;99.80
33645;DHT22;19986;48.190;16.366;2022-07-03T06:36:10;23.90;99.70
33645;DHT22;19986;48.190;16.366;2022-07-03T06:38:36;24.00;99.30
33645;DHT22;19986;48.190;16.366;2022-07-03T06:41:01;24.10;99.10
33645;DHT22;19986;48.190;16.366;2022-07-03T06:43:27;24.00;99.20
33645;DHT22;19986;48.190;16.366;2022-07-03T06:45:53;24.10;99.30
33645;DHT22;19986;48.190;16.366;2022-07-03T06:48:20;24.10;99.20
33645;DHT22;19986;48.190;16.366;2022-07-03T06:50:46;24.00;99.40
33645;DHT22;19986;48.190;16.366;2022-07-03T06:53:12;24.10;99.40
33645;DHT22;19986;48.190;16.366;2022-07-03T06:55:38;24.00;99.50
33645;DHT22;19986;48.190;16.366;2022-07-03T06:58:03;23.90;99.80
33645;DHT22;19986;48.190;16.366;2022-07-03T07:00:29;24.10;99.80
33645;DHT22;19986;48.190;16.366;2022-07-03T07:02:55;23.90;99.80
33645;DHT22;19986;48.190;16.366;2022-07-03T07:05:21;24.00;99.90
33645;DHT22;19986;48.190;16.366;2022-07-03T07:07:48;24.30;99.80
33645;DHT22;19986;48.190;16.366;2022-07-03T07:10:14;24.50;99.40
33645;DHT22;19986;48.190;16.366;2022-07-03T07:12:40;24.70;98.90
33645;DHT22;19986;48.190;16.366;2022-07-03T07:15:06;24.60;98.80
33645;DHT22;19986;48.190;16.366;2022-07-03T07:17:32;24.40;99.00
33645;DHT22;19986;48.190;16.366;2022-07-03T07:19:58;24.50;99.20
33645;DHT22;19986;48.190;16.366;2022-07-03T07:22:24;24.70;98.90
33645;DHT22;19986;48.190;16.366;2022-07-03T07:24:51;24.90;98.70
33645;DHT22;19986;48.190;16.366;2022-07-03T07:27:17;25.10;98.30
33645;DHT22;19986;48.190;16.366;2022-07-03T07:29:43;25.20;98.10
33645;DHT22;19986;48.190;16.366;2022-07-03T07:32:09;25.30;98.40
33645;DHT22;19986;48.190;16.366;2022-07-03T07:34:35;25.50;97.80
33645;DHT22;19986;48.190;16.366;2022-07-03T07:37:01;25.60;97.50
33645;DHT22;19986;48.190;16.366;2022-07-03T07:39:27;25.60;97.20
33645;DHT22;19986;48.190;16.366;2022-07-03T07:41:53;25.70;97.20
33645;DHT22;19986;48.190;16.366;2022-07-03T07:44:18;25.70;97.20
33645;DHT22;19986;48.190;16.366;2022-07-03T07:46:44;25.60;96.90
33645;DHT22;19986;48.190;16.366;2022-07-03T07:49:10;25.70;96.90
33645;DHT22;19986;48.190;16.366;2022-07-03T07:51:36;25.90;96.70
33645;DHT22;19986;48.190;16.366;2022-07-03T07:54:02;25.70;96.50
33645;DHT22;19986;48.190;16.366;2022-07-03T07:56:28;25.70;96.60
33645;DHT22;19986;48.190;16.366;2022-07-03T07:58:54;25.90;96.90
33645;DHT22;19986;48.190;16.366;2022-07-03T08:01:20;26.00;96.50
33645;DHT22;19986;48.190;16.366;2022-07-03T08:04:05;26.20;96.40
33645;DHT22;19986;48.190;16.366;2022-07-03T08:06:49;26.30;96.40
33645;DHT22;19986;48.190;16.366;2022-07-03T08:09:15;26.40;96.10
33645;DHT22;19986;48.190;16.366;2022-07-03T08:11:41;26.50;96.10
33645;DHT22;19986;48.190;16.366;2022-07-03T08:14:07;26.70;95.60
33645;DHT22;19986;48.190;16.366;2022-07-03T08:16:34;26.80;95.40
33645;DHT22;19986;48.190;16.366;2022-07-03T08:19:00;27.00;95.30
33645;DHT22;19986;48.190;16.366;2022-07-03T08:21:27;27.20;94.80
33645;DHT22;19986;48.190;16.366;2022-07-03T08:23:53;27.00;94.70
33645;DHT22;19986;48.190;16.366;2022-07-03T08:26:19;26.90;94.70
33645;DHT22;19986;48.190;16.366;2022-07-03T08:28:44;26.70;95.10
33645;DHT22;19986;48.190;16.366;2022-07-03T08:31:10;26.80;95.10
33645;DHT22;19986;48.190;16.366;2022-07-03T08:33:36;27.00;95.20
33645;DHT22;19986;48.190;16.366;2022-07-03T08:36:04;28.00;95.10
33645;DHT22;19986;48.190;16.366;2022-07-03T08:38:32;29.50;93.40
33645;DHT22;19986;48.190;16.366;2022-07-03T08:41:03;31.60;91.20
33645;DHT22;19986;48.190;16.366;2022-07-03T08:43:29;33.70;86.50
33645;DHT22;19986;48.190;16.366;2022-07-03T08:45:57;35.50;80.50
33645;DHT22;19986;48.190;16.366;2022-07-03T08:48:25;36.10;78.50
33645;DHT22;19986;48.190;16.366;2022-07-03T08:50:53;36.90;76.20
33645;DHT22;19986;48.190;16.366;2022-07-03T08:53:19;37.30;73.40
33645;DHT22;19986;48.190;16.366;2022-07-03T08:55:49;37.50;72.20
33645;DHT22;19986;48.190;16.366;2022-07-03T08:58:16;37.90;71.50
33645;DHT22;19986;48.190;16.366;2022-07-03T09:00:45;38.50;70.70
33645;DHT22;19986;48.190;16.366;2022-07-03T09:03:11;39.10;67.90
33645;DHT22;19986;48.190;16.366;2022-07-03T09:05:39;38.70;68.10
33645;DHT22;19986;48.190;16.366;2022-07-03T09:08:09;39.50;68.30
33645;DHT22;19986;48.190;16.366;2022-07-03T09:10:35;40.30;65.10
33645;DHT22;19986;48.190;16.366;2022-07-03T09:13:02;38.90;65.70
33645;DHT22;19986;48.190;16.366;2022-07-03T09:15:28;38.80;66.90
33645;DHT22;19986;48.190;16.366;2022-07-03T09:18:04;39.20;66.70
33645;DHT22;19986;48.190;16.366;2022-07-03T09:20:39;39.90;65.50
33645;DHT22;19986;48.190;16.366;2022-07-03T09:23:15;40.00;64.40
33645;DHT22;19986;48.190;16.366;2022-07-03T09:28:49;41.30;61.90
33645;DHT22;19986;48.190;16.366;2022-07-03T09:31:25;40.30;62.80
33645;DHT22;19986;48.190;16.366;2022-07-03T09:34:02;40.70;63.20
33645;DHT22;19986;48.190;16.366;2022-07-03T09:36:41;41.80;60.80
33645;DHT22;19986;48.190;16.366;2022-07-03T09:39:24;41.40;60.20
33645;DHT22;19986;48.190;16.366;2022-07-03T09:42:09;41.50;59.90
33645;DHT22;19986;48.190;16.366;2022-07-03T09:44:42;41.80;59.50
33645;DHT22;19986;48.190;16.366;2022-07-03T09:47:18;41.70;59.40
33645;DHT22;19986;48.190;16.366;2022-07-03T09:49:57;41.80;59.10
33645;DHT22;19986;48.190;16.366;2022-07-03T09:52:42;41.80;59.60
33645;DHT22;19986;48.190;16.366;2022-07-03T09:57:39;41.80;59.70
33645;DHT22;19986;48.190;16.366;2022-07-03T10:00:21;41.70;59.30
33645;DHT22;19986;48.190;16.366;2022-07-03T10:03:06;41.70;59.60
33645;DHT22;19986;48.190;16.366;2022-07-03T10:05:40;42.10;59.30
33645;DHT22;19986;48.190;16.366;2022-07-03T10:10:35;42.20;58.90
33645;DHT22;19986;48.190;16.366;2022-07-03T10:13:16;42.10;59.20
33645;DHT22;19986;48.190;16.366;2022-07-03T10:15:57;42.10;59.10
33645;DHT22;19986;48.190;16.366;2022-07-03T10:18:39;42.30;58.70
33645;DHT22;19986;48.190;16.366;2022-07-03T10:21:08;41.90;59.00
33645;DHT22;19986;48.190;16.366;2022-07-03T10:23:35;41.20;59.60
33645;DHT22;19986;48.190;16.366;2022-07-03T10:26:01;41.30;60.00
33645;DHT22;19986;48.190;16.366;2022-07-03T10:28:29;41.70;59.50
33645;DHT22;19986;48.190;16.366;2022-07-03T10:30:56;41.90;59.60
33645;DHT22;19986;48.190;16.366;2022-07-03T10:33:23;42.10;59.20
33645;DHT22;19986;48.190;16.366;2022-07-03T10:35:53;42.50;58.90
33645;DHT22;19986;48.190;16.366;2022-07-03T10:38:40;42.50;58.50
33645;DHT22;19986;48.190;16.366;2022-07-03T10:44:00;42.50;58.60
33645;DHT22;19986;48.190;16.366;2022-07-03T10:46:45;42.60;58.80
33645;DHT22;19986;48.190;16.366;2022-07-03T10:49:14;42.90;58.60
33645;DHT22;19986;48.190;16.366;2022-07-03T10:51:59;43.10;58.00
33645;DHT22;19986;48.190;16.366;2022-07-03T10:54:26;43.20;57.90
33645;DHT22;19986;48.190;16.366;2022-07-03T11:13:08;42.90;57.70
33645;DHT22;19986;48.190;16.366;2022-07-03T11:15:51;42.90;57.40
33645;DHT22;19986;48.190;16.366;2022-07-03T11:25:56;42.80;58.10
33645;DHT22;19986;48.190;16.366;2022-07-03T11:39:02;42.50;58.20
33645;DHT22;19986;48.190;16.366;2022-07-03T11:41:29;42.30;58.40
33645;DHT22;19986;48.190;16.366;2022-07-03T11:44:01;42.10;58.80
33645;DHT22;19986;48.190;16.366;2022-07-03T11:46:35;42.00;58.70
33645;DHT22;19986;48.190;16.366;2022-07-03T11:49:08;41.80;58.80
33645;DHT22;19986;48.190;16.366;2022-07-03T11:51:35;41.50;59.10
33645;DHT22;19986;48.190;16.366;2022-07-03T11:54:02;41.10;59.60
33645;DHT22;19986;48.190;16.366;2022-07-03T11:56:29;40.90;59.50
33645;DHT22;19986;48.190;16.366;2022-07-03T11:58:57;40.30;59.90
33645;DHT22;19986;48.190;16.366;2022-07-03T12:04:09;39.20;62.10
33645;DHT22;19986;48.190;16.366;2022-07-03T12:06:47;39.20;62.40
33645;DHT22;19986;48.190;16.366;2022-07-03T12:14:47;38.80;62.80
33645;DHT22;19986;48.190;16.366;2022-07-03T12:17:32;38.80;62.40
33645;DHT22;19986;48.190;16.366;2022-07-03T12:20:01;38.60;63.40
33645;DHT22;19986;48.190;16.366;2022-07-03T12:22:35;38.70;62.70
33645;DHT22;19986;48.190;16.366;2022-07-03T12:25:07;38.40;62.20
33645;DHT22;19986;48.190;16.366;2022-07-03T12:30:06;37.70;63.60
33645;DHT22;19986;48.190;16.366;2022-07-03T12:32:33;37.60;63.80
33645;DHT22;19986;48.190;16.366;2022-07-03T12:34:59;37.50;63.60
33645;DHT22;19986;48.190;16.366;2022-07-03T12:37:37;37.40;63.90
33645;DHT22;19986;48.190;16.366;2022-07-03T12:40:07;37.00;64.70
33645;DHT22;19986;48.190;16.366;2022-07-03T12:45:12;36.30;64.60
33645;DHT22;19986;48.190;16.366;2022-07-03T12:47:38;35.90;65.10
33645;DHT22;19986;48.190;16.366;2022-07-03T12:50:08;35.60;65.10
33645;DHT22;19986;48.190;16.366;2022-07-03T12:52:48;35.30;65.60
33645;DHT22;19986;48.190;16.366;2022-07-03T12:55:24;35.10;66.00
33645;DHT22;19986;48.190;16.366;2022-07-03T12:58:12;35.00;66.70
33645;DHT22;19986;48.190;16.366;2022-07-03T13:00:57;34.90;66.40
33645;DHT22;19986;48.190;16.366;2022-07-03T13:03:31;34.70;67.10
33645;DHT22;19986;48.190;16.366;2022-07-03T13:05:57;34.60;68.30
33645;DHT22;19986;48.190;16.366;2022-07-03T13:08:24;34.60;67.50
33645;DHT22;19986;48.190;16.366;2022-07-03T13:10:59;34.50;67.10
33645;DHT22;19986;48.190;16.366;2022-07-03T13:13:26;34.40;67.30
33645;DHT22;19986;48.190;16.366;2022-07-03T13:16:28;34.40;67.40
33645;DHT22;19986;48.190;16.366;2022-07-03T13:19:00;34.20;67.50
33645;DHT22;19986;48.190;16.366;2022-07-03T13:21:28;34.20;68.30
33645;DHT22;19986;48.190;16.366;2022-07-03T13:23:55;34.30;68.00
33645;DHT22;19986;48.190;16.366;2022-07-03T13:26:21;34.30;68.90
33645;DHT22;19986;48.190;16.366;2022-07-03T13:28:47;34.40;68.70
33645;DHT22;19986;48.190;16.366;2022-07-03T13:31:13;34.40;68.00
33645;DHT22;19986;48.190;16.366;2022-07-03T13:33:39;34.30;67.90
33645;DHT22;19986;48.190;16.366;2022-07-03T13:36:04;34.40;68.20
33645;DHT22;19986;48.190;16.366;2022-07-03T13:38:30;34.40;68.70
33645;DHT22;19986;48.190;16.366;2022-07-03T13:40:56;34.40;69.00
33645;DHT22;19986;48.190;16.366;2022-07-03T13:43:22;34.40;69.70
33645;DHT22;19986;48.190;16.366;2022-07-03T13:45:48;34.30;69.80
33645;DHT22;19986;48.190;16.366;2022-07-03T13:48:14;34.20;70.00
33645;DHT22;19986;48.190;16.366;2022-07-03T13:50:42;34.30;69.40
33645;DHT22;19986;48.190;16.366;2022-07-03T13:53:08;34.40;69.10
33645;DHT22;19986;48.190;16.366;2022-07-03T13:55:34;34.40;69.60
33645;DHT22;19986;48.190;16.366;2022-07-03T13:58:00;34.40;70.40
33645;DHT22;19986;48.190;16.366;2022-07-03T14:00:30;34.50;69.40
33645;DHT22;19986;48.190;16.366;2022-07-03T14:02:56;34.50;68.70
33645;DHT22;19986;48.190;16.366;2022-07-03T14:05:22;34.40;68.70
33645;DHT22;19986;48.190;16.366;2022-07-03T14:07:51;34.50;68.80
33645;DHT22;19986;48.190;16.366;2022-07-03T14:10:17;34.50;69.50
33645;DHT22;19986;48.190;16.366;2022-07-03T14:12:43;34.50;70.20
33645;DHT22;19986;48.190;16.366;2022-07-03T14:15:09;34.50;69.50
33645;DHT22;19986;48.190;16.366;2022-07-03T14:17:35;34.50;69.50
33645;DHT22;19986;48.190;16.366;2022-07-03T14:20:02;34.50;70.20
33645;DHT22;19986;48.190;16.366;2022-07-03T14:22:28;34.60;70.80
33645;DHT22;19986;48.190;16.366;2022-07-03T14:24:54;34.60;70.80
33645;DHT22;19986;48.190;16.366;2022-07-03T14:27:20;34.60;70.90
33645;DHT22;19986;48.190;16.366;2022-07-03T14:30:05;34.60;70.70
33645;DHT22;19986;48.190;16.366;2022-07-03T14:32:49;34.60;70.90
33645;DHT22;19986;48.190;16.366;2022-07-03T14:35:15;34.50;70.20
33645;DHT22;19986;48.190;16.366;2022-07-03T14:37:41;34.50;70.00
33645;DHT22;19986;48.190;16.366;2022-07-03T14:40:07;34.60;70.20
33645;DHT22;19986;48.190;16.366;2022-07-03T14:42:34;34.70;69.90
33645;DHT22;19986;48.190;16.366;2022-07-03T14:45:00;34.70;70.80
33645;DHT22;19986;48.190;16.366;2022-07-03T14:47:26;34.60;71.00
33645;DHT22;19986;48.190;16.366;2022-07-03T14:49:52;34.70;71.60
33645;DHT22;19986;48.190;16.366;2022-07-03T14:52:20;34.80;71.50
33645;DHT22;19986;48.190;16.366;2022-07-03T14:54:46;34.90;71.40
33645;DHT22;19986;48.190;16.366;2022-07-03T14:57:25;35.00;71.40
33645;DHT22;19986;48.190;16.366;2022-07-03T15:03:05;34.90;69.40
33645;DHT22;19986;48.190;16.366;2022-07-03T15:05:33;35.00;69.90
33645;DHT22;19986;48.190;16.366;2022-07-03T15:11:19;34.80;70.10
33645;DHT22;19986;48.190;16.366;2022-07-03T15:14:05;34.80;69.20
33645;DHT22;19986;48.190;16.366;2022-07-03T15:16:33;34.70;68.90
33645;DHT22;19986;48.190;16.366;2022-07-03T15:19:01;34.70;68.80
33645;DHT22;19986;48.190;16.366;2022-07-03T15:21:30;34.80;69.20
33645;DHT22;19986;48.190;16.366;2022-07-03T15:24:02;34.80;69.70
33645;DHT22;19986;48.190;16.366;2022-07-03T15:26:31;34.70;70.20
33645;DHT22;19986;48.190;16.366;2022-07-03T15:28:59;34.60;67.70
33645;DHT22;19986;48.190;16.366;2022-07-03T15:31:27;34.60;68.70
33645;DHT22;19986;48.190;16.366;2022-07-03T15:33:54;34.70;67.20
33645;DHT22;19986;48.190;16.366;2022-07-03T15:36:25;34.80;66.70
33645;DHT22;19986;48.190;16.366;2022-07-03T15:39:00;34.70;68.10
33645;DHT22;19986;48.190;16.366;2022-07-03T15:41:39;34.60;67.40
33645;DHT22;19986;48.190;16.366;2022-07-03T15:44:14;34.60;67.30
33645;DHT22;19986;48.190;16.366;2022-07-03T15:49:50;34.50;66.70
33645;DHT22;19986;48.190;16.366;2022-07-03T15:52:20;34.60;67.80
33645;DHT22;19986;48.190;16.366;2022-07-03T15:55:08;34.60;65.90
33645;DHT22;19986;48.190;16.366;2022-07-03T15:58:03;34.50;64.80
33645;DHT22;19986;48.190;16.366;2022-07-03T16:00:35;34.50;65.30
33645;DHT22;19986;48.190;16.366;2022-07-03T16:03:26;34.30;66.70
33645;DHT22;19986;48.190;16.366;2022-07-03T16:05:55;34.10;67.30
33645;DHT22;19986;48.190;16.366;2022-07-03T16:08:24;34.10;67.90
33645;DHT22;19986;48.190;16.366;2022-07-03T16:10:50;34.10;67.90
33645;DHT22;19986;48.190;16.366;2022-07-03T16:13:20;34.10;67.30
33645;DHT22;19986;48.190;16.366;2022-07-03T16:15:50;34.00;66.30
33645;DHT22;19986;48.190;16.366;2022-07-03T16:18:17;34.00;66.50
33645;DHT22;19986;48.190;16.366;2022-07-03T16:20:44;34.00;66.40
33645;DHT22;19986;48.190;16.366;2022-07-03T16:23:12;34.00;65.50
33645;DHT22;19986;48.190;16.366;2022-07-03T16:25:39;33.90;63.60
33645;DHT22;19986;48.190;16.366;2022-07-03T16:28:08;33.90;62.80
33645;DHT22;19986;48.190;16.366;2022-07-03T16:30:39;33.80;61.90
33645;DHT22;19986;48.190;16.366;2022-07-03T16:33:10;33.80;61.70
33645;DHT22;19986;48.190;16.366;2022-07-03T16:35:40;33.90;63.00
33645;DHT22;19986;48.190;16.366;2022-07-03T16:38:08;33.80;67.40
33645;DHT22;19986;48.190;16.366;2022-07-03T16:40:37;33.60;70.40
33645;DHT22;19986;48.190;16.366;2022-07-03T16:43:23;33.50;71.60
33645;DHT22;19986;48.190;16.366;2022-07-03T16:45:54;33.40;71.30
33645;DHT22;19986;48.190;16.366;2022-07-03T16:48:24;33.30;69.90
33645;DHT22;19986;48.190;16.366;2022-07-03T16:50:58;33.20;70.00
33645;DHT22;19986;48.190;16.366;2022-07-03T16:53:26;33.20;70.60
33645;DHT22;19986;48.190;16.366;2022-07-03T16:55:52;33.10;71.00
33645;DHT22;19986;48.190;16.366;2022-07-03T16:58:19;33.10;71.40
33645;DHT22;19986;48.190;16.366;2022-07-03T17:00:47;33.20;72.80
33645;DHT22;19986;48.190;16.366;2022-07-03T17:03:16;33.10;73.40
33645;DHT22;19986;48.190;16.366;2022-07-03T17:05:43;33.00;74.00